Time;durP1;ratioP1;P1;durP2;ratioP2;P2;SDS_P1;SDS_P2;PMS_P1;PMS_P2;Temp;Humidity;BMP_temperature;BMP_pressure;BME280_temperature;BME280_humidity;BME280_pressure;Samples;Min_cycle;Max_cycle;Signal;HPM_P1;HPM_P2
2022/04/23 00:02:02;;;;;;;34.03;17.27;;;;;;;8.84;70.27;99546.97;5020086;28;20083;-70
2022/04/23 00:04:30;;;;;;;28.02;18.58;;;;;;;8.82;70.18;99547.06;5020972;28;20033;-73
2022/04/23 00:06:55;;;;;;;32.92;20.65;;;;;;;8.82;70.58;99539.09;5014247;28;20139;-70
2022/04/23 00:09:19;;;;;;;32.42;18.45;;;;;;;8.81;70.43;99547.19;4981524;28;20523;-68
2022/04/23 00:11:45;;;;;;;35.78;18.00;;;;;;;8.81;69.60;99550.69;5017096;28;20558;-69
2022/04/23 00:14:10;;;;;;;34.40;19.52;;;;;;;8.85;70.18;99546.03;5015356;28;20080;-69
2022/04/23 00:16:35;;;;;;;40.97;20.67;;;;;;;8.89;69.85;99536.91;4993893;28;20084;-69
2022/04/23 00:19:00;;;;;;;33.13;20.10;;;;;;;8.93;69.56;99539.25;4999232;28;20036;-69
2022/04/23 00:21:25;;;;;;;34.58;18.75;;;;;;;8.97;70.07;99547.88;4982331;28;20071;-70
2022/04/23 00:23:50;;;;;;;39.47;20.45;;;;;;;9.00;69.97;99537.91;5016743;28;20190;-68
2022/04/23 00:26:15;;;;;;;36.92;19.00;;;;;;;9.01;69.89;99549.41;5016456;28;20128;-68
2022/04/23 00:28:39;;;;;;;36.47;18.40;;;;;;;9.01;69.76;99544.06;4997144;28;20033;-70
2022/04/23 00:31:05;;;;;;;36.60;18.50;;;;;;;9.03;69.47;99540.34;5014132;28;20045;-71
2022/04/23 00:33:30;;;;;;;37.88;19.52;;;;;;;9.05;69.91;99541.09;4984616;28;20409;-71
2022/04/23 00:35:55;;;;;;;31.13;17.77;;;;;;;9.06;70.03;99542.81;4987573;28;20495;-68
2022/04/23 00:38:20;;;;;;;37.40;18.63;;;;;;;9.07;70.09;99538.34;5016794;28;20510;-67
2022/04/23 00:40:46;;;;;;;32.28;17.13;;;;;;;9.08;69.71;99551.53;5015354;28;20072;-71
2022/04/23 00:43:30;;;;;;;38.10;19.67;;;;;;;9.13;69.96;99543.25;5006226;28;20416;-70
2022/04/23 00:45:57;;;;;;;28.67;19.23;;;;;;;9.05;69.79;99545.56;5009723;28;20084;-68
2022/04/23 00:48:26;;;;;;;28.63;17.80;;;;;;;9.06;69.30;99545.47;5011473;28;20041;-68
2022/04/23 00:50:52;;;;;;;34.70;18.80;;;;;;;9.07;69.80;99536.53;4980910;28;20041;-67
2022/04/23 00:53:19;;;;;;;33.58;19.17;;;;;;;9.09;69.52;99536.44;4998439;28;20095;-69
2022/04/23 00:55:44;;;;;;;38.80;20.17;;;;;;;9.10;69.24;99540.78;5015685;28;20041;-69
2022/04/23 00:58:08;;;;;;;37.45;18.48;;;;;;;9.08;69.65;99543.56;5016172;28;20037;-70
2022/04/23 01:00:34;;;;;;;29.80;17.23;;;;;;;9.08;69.67;99538.25;5016114;28;20044;-73
2022/04/23 01:02:59;;;;;;;29.52;19.27;;;;;;;9.08;69.29;99538.25;4997595;28;20037;-70
2022/04/23 01:05:23;;;;;;;46.75;26.85;;;;;;;9.07;69.11;99541.00;4998036;28;20044;-71
2022/04/23 01:07:48;;;;;;;51.00;37.53;;;;;;;9.04;69.20;99535.88;4997786;28;20068;-70
2022/04/23 01:10:13;;;;;;;62.67;41.03;;;;;;;9.00;69.39;99537.91;5015929;28;20040;-71
2022/04/23 01:12:38;;;;;;;55.40;42.65;;;;;;;8.94;69.46;99538.28;5016106;28;20043;-72
2022/04/23 01:15:05;;;;;;;59.38;40.55;;;;;;;8.94;69.89;99537.44;4981626;28;20045;-69
2022/04/23 01:17:30;;;;;;;58.35;40.85;;;;;;;8.92;69.46;99534.03;5015152;28;20095;-68
2022/04/23 01:19:55;;;;;;;55.55;38.00;;;;;;;8.94;69.92;99532.13;5015120;28;20459;-68
2022/04/23 01:22:23;;;;;;;59.70;34.60;;;;;;;8.97;69.12;99530.13;5014729;28;20384;-68
2022/04/23 01:24:50;;;;;;;52.33;30.70;;;;;;;8.98;69.92;99526.50;5015246;28;20507;-68
2022/04/23 01:27:15;;;;;;;45.95;29.17;;;;;;;9.01;69.17;99534.28;5015095;28;20052;-67
2022/04/23 01:29:40;;;;;;;46.00;28.77;;;;;;;9.03;69.42;99528.84;5015259;28;20477;-69
2022/04/23 01:32:05;;;;;;;47.03;27.95;;;;;;;9.05;68.96;99527.78;4997086;28;20511;-67
2022/04/23 01:34:30;;;;;;;50.88;27.77;;;;;;;9.07;69.54;99527.69;4996360;28;20568;-68
2022/04/23 01:36:55;;;;;;;41.40;25.15;;;;;;;9.09;68.96;99524.00;5020316;28;20056;-67
2022/04/23 01:39:20;;;;;;;42.90;29.77;;;;;;;9.11;69.05;99526.56;5014312;28;20049;-67
2022/04/23 01:41:47;;;;;;;41.05;22.88;;;;;;;9.14;69.48;99528.16;4995103;28;20068;-67
2022/04/23 01:44:11;;;;;;;47.38;24.55;;;;;;;9.14;69.04;99528.16;4980004;28;20610;-67
2022/04/23 01:46:36;;;;;;;36.38;21.88;;;;;;;9.13;69.37;99526.44;5012138;28;20522;-66
2022/04/23 01:49:01;;;;;;;42.50;23.60;;;;;;;9.12;69.31;99527.41;4995810;28;20076;-66
2022/04/23 01:51:26;;;;;;;31.85;20.10;;;;;;;9.12;69.52;99524.75;5015452;28;20519;-66
2022/04/23 01:53:51;;;;;;;31.08;20.80;;;;;;;9.10;69.78;99527.50;5000904;28;20167;-66
2022/04/23 01:56:16;;;;;;;38.95;22.00;;;;;;;9.11;69.37;99523.88;4995499;28;20037;-66
2022/04/23 01:58:40;;;;;;;40.67;21.92;;;;;;;9.11;69.84;99523.88;5015959;28;20123;-65
2022/04/23 02:01:05;;;;;;;42.67;20.77;;;;;;;9.12;69.55;99527.41;4999459;28;20423;-66
2022/04/23 02:03:31;;;;;;;32.70;20.30;;;;;;;9.12;69.75;99524.75;4963261;28;20111;-66
2022/04/23 02:05:56;;;;;;;38.42;20.83;;;;;;;9.11;70.17;99526.56;5011424;28;20052;-66
2022/04/23 02:08:21;;;;;;;32.50;20.95;;;;;;;9.09;69.72;99526.66;5014932;28;20041;-65
2022/04/23 02:10:47;;;;;;;35.70;21.15;;;;;;;9.05;70.03;99534.91;4997671;28;20053;-67
2022/04/23 02:13:12;;;;;;;36.22;20.40;;;;;;;8.98;70.39;99526.50;5016439;28;20040;-64
2022/04/23 02:15:37;;;;;;;32.90;20.70;;;;;;;8.91;71.55;99525.22;5013975;28;20037;-67
2022/04/23 02:18:01;;;;;;;34.60;20.58;;;;;;;8.86;71.87;99527.31;5012775;28;20167;-72
2022/04/23 02:20:28;;;;;;;35.10;20.38;;;;;;;8.82;72.59;99527.63;5013220;28;20133;-66
2022/04/23 02:22:55;;;;;;;39.40;22.38;;;;;;;8.76;72.95;99534.22;4995741;28;20033;-64
2022/04/23 02:25:20;;;;;;;32.13;21.02;;;;;;;8.72;73.43;99533.53;5016143;28;20048;-66
2022/04/23 02:27:47;;;;;;;40.78;21.17;;;;;;;8.70;73.94;99534.59;5014831;28;20041;-65
2022/04/23 02:30:14;;;;;;;37.38;21.15;;;;;;;8.65;74.08;99528.75;4994271;28;20048;-64
2022/04/23 02:32:41;;;;;;;36.53;20.55;;;;;;;8.62;74.03;99532.44;5018170;28;20045;-65
2022/04/23 02:35:06;;;;;;;37.15;21.88;;;;;;;8.61;74.06;99528.09;5019873;28;20049;-65
2022/04/23 02:37:34;;;;;;;31.58;20.30;;;;;;;8.63;74.23;99527.97;5001199;28;20046;-65
2022/04/23 02:39:59;;;;;;;30.95;19.50;;;;;;;8.61;74.35;99529.88;5036193;28;20051;-65
2022/04/23 02:42:24;;;;;;;37.17;21.33;;;;;;;8.60;75.09;99529.03;5025635;28;20041;-64
2022/04/23 02:44:50;;;;;;;37.30;20.65;;;;;;;8.59;75.05;99526.47;5018488;28;20060;-65
2022/04/23 02:47:14;;;;;;;43.22;22.13;;;;;;;8.60;75.24;99521.06;5018425;28;20057;-67
2022/04/23 02:49:39;;;;;;;35.85;21.80;;;;;;;8.62;75.03;99520.97;5000022;28;20063;-64
2022/04/23 02:52:04;;;;;;;35.47;21.08;;;;;;;8.64;75.64;99522.56;5018959;28;20052;-66
2022/04/23 02:54:29;;;;;;;37.63;21.50;;;;;;;8.66;75.61;99522.47;5020979;28;20028;-69
2022/04/23 02:56:55;;;;;;;36.38;21.27;;;;;;;8.68;75.75;99523.25;4974544;28;20061;-69
2022/04/23 02:59:20;;;;;;;42.38;22.52;;;;;;;8.70;75.51;99519.50;5030194;28;20040;-68
2022/04/23 03:01:44;;;;;;;41.92;23.42;;;;;;;8.73;75.57;99515.78;5038167;28;20055;-69
2022/04/23 03:04:10;;;;;;;34.75;21.25;;;;;;;8.78;75.14;99520.81;5037981;28;20076;-64
2022/04/23 03:06:35;;;;;;;38.95;21.83;;;;;;;8.82;75.80;99522.31;5037407;28;20447;-64
2022/04/23 03:09:03;;;;;;;38.95;22.48;;;;;;;8.84;75.42;99521.25;5039218;28;20486;-69
2022/04/23 03:11:28;;;;;;;38.13;20.80;;;;;;;8.86;74.97;99535.31;5020515;28;20139;-66
2022/04/23 03:13:53;;;;;;;33.13;20.27;;;;;;;8.90;75.04;99525.31;5020125;28;20511;-66
2022/04/23 03:16:18;;;;;;;34.33;21.27;;;;;;;8.94;74.99;99518.84;5038103;28;20425;-66
2022/04/23 03:18:43;;;;;;;32.95;22.27;;;;;;;8.99;75.47;99525.56;5037871;28;20119;-66
2022/04/23 03:21:07;;;;;;;37.10;22.23;;;;;;;9.02;74.77;99522.72;5037537;28;20044;-67
2022/04/23 03:23:32;;;;;;;30.60;20.38;;;;;;;9.05;74.96;99514.50;5037242;28;20047;-66
2022/04/23 03:25:57;;;;;;;37.30;22.63;;;;;;;9.08;75.04;99511.66;5036966;28;20460;-64
2022/04/23 03:28:22;;;;;;;29.30;21.50;;;;;;;9.14;74.87;99515.72;5035779;28;20135;-63
2022/04/23 03:30:47;;;;;;;35.20;20.55;;;;;;;9.20;75.25;99522.41;5036875;28;20118;-65
2022/04/23 03:33:11;;;;;;;34.08;21.85;;;;;;;9.25;74.71;99514.97;5035625;28;20037;-64
2022/04/23 03:35:36;;;;;;;32.17;22.42;;;;;;;9.29;75.06;99514.66;5001802;28;20043;-63
2022/04/23 03:38:03;;;;;;;35.38;22.25;;;;;;;9.33;75.10;99515.31;5018897;28;20047;-64
2022/04/23 03:40:28;;;;;;;30.77;20.55;;;;;;;9.38;74.40;99521.16;5036902;28;20594;-63
2022/04/23 03:42:52;;;;;;;31.92;21.52;;;;;;;9.40;74.50;99517.44;5036307;28;20457;-63
2022/04/23 03:45:18;;;;;;;33.20;20.55;;;;;;;9.44;74.27;99524.25;5036680;28;20048;-64
2022/04/23 03:47:44;;;;;;;32.03;20.10;;;;;;;9.49;74.06;99526.59;5036388;28;20067;-65
2022/04/23 03:50:10;;;;;;;34.20;21.98;;;;;;;9.52;74.36;99529.03;5018455;28;20067;-64
2022/04/23 03:52:35;;;;;;;36.78;20.65;;;;;;;9.54;74.33;99518.28;5036512;28;20040;-64
2022/04/23 03:55:00;;;;;;;31.25;20.05;;;;;;;9.55;74.16;99526.19;5036208;28;20085;-65
2022/04/23 03:57:25;;;;;;;35.95;22.63;;;;;;;9.56;74.40;99525.22;5036282;28;20521;-63
2022/04/23 03:59:49;;;;;;;31.10;19.73;;;;;;;9.57;74.26;99524.25;5036444;28;20380;-66
2022/04/23 04:02:14;;;;;;;40.83;23.67;;;;;;;9.58;74.54;99517.97;5018656;28;20470;-66
2022/04/23 04:04:41;;;;;;;27.67;20.20;;;;;;;9.60;74.43;99521.38;5036783;28;20048;-66
2022/04/23 04:07:06;;;;;;;33.63;21.80;;;;;;;9.62;74.59;99524.78;5035251;28;20544;-67
2022/04/23 04:09:30;;;;;;;35.83;23.13;;;;;;;9.64;74.55;99527.34;5018647;28;20499;-66
2022/04/23 04:12:01;;;;;;;30.92;21.08;;;;;;;9.67;74.74;99521.81;5036527;28;20510;-66
2022/04/23 04:14:26;;;;;;;34.17;21.33;;;;;;;9.70;74.65;99524.25;5036461;28;20352;-66
2022/04/23 04:16:51;;;;;;;31.25;19.85;;;;;;;9.75;74.31;99520.31;5036401;28;20961;-66
2022/04/23 04:19:16;;;;;;;34.40;22.23;;;;;;;9.82;74.19;99526.03;5036044;28;20456;-66
2022/04/23 04:21:46;;;;;;;32.90;20.48;;;;;;;9.89;74.29;99523.81;5036073;28;20127;-66
2022/04/23 04:24:13;;;;;;;35.97;23.20;;;;;;;9.92;74.39;99531.59;5036449;28;20048;-66
2022/04/23 04:26:40;;;;;;;35.13;21.45;;;;;;;9.97;73.75;99524.97;5001691;28;20199;-66
2022/04/23 04:29:05;;;;;;;32.15;22.20;;;;;;;10.01;73.97;99526.47;5034656;28;20201;-65
2022/04/23 04:31:49;;;;;;;35.55;22.27;;;;;;;10.08;73.79;99526.88;5018084;28;20127;-66
2022/04/23 04:34:17;;;;;;;34.45;24.05;;;;;;;10.19;73.39;99525.19;5034716;28;20044;-66
2022/04/23 04:36:42;;;;;;;37.30;23.00;;;;;;;10.30;73.42;99526.22;5018098;28;20068;-66
2022/04/23 04:39:07;;;;;;;32.65;21.45;;;;;;;10.40;73.23;99527.25;5001592;28;20044;-66
2022/04/23 04:41:32;;;;;;;34.45;22.92;;;;;;;10.51;72.95;99522.84;5035823;28;20040;-66
2022/04/23 04:43:57;;;;;;;36.58;22.92;;;;;;;10.63;72.13;99525.56;5035757;28;20052;-67
2022/04/23 04:46:22;;;;;;;37.05;23.67;;;;;;;10.74;71.97;99528.28;5035430;28;20495;-66
2022/04/23 04:48:47;;;;;;;42.88;24.27;;;;;;;10.83;71.87;99517.81;5036071;28;20487;-67
2022/04/23 04:51:11;;;;;;;30.50;21.80;;;;;;;10.94;71.68;99521.50;5035820;28;20036;-66
2022/04/23 04:53:36;;;;;;;38.05;22.35;;;;;;;11.04;71.34;99523.38;5036467;28;20048;-67
2022/04/23 04:56:01;;;;;;;32.22;21.75;;;;;;;11.21;70.22;99522.06;5036225;28;20526;-66
2022/04/23 04:58:25;;;;;;;39.00;23.92;;;;;;;11.41;69.74;99515.19;5036811;28;20388;-68
2022/04/23 05:00:50;;;;;;;40.28;24.45;;;;;;;11.60;68.81;99527.03;5036340;28;20043;-67
2022/04/23 05:03:15;;;;;;;34.45;21.75;;;;;;;11.71;66.82;99522.69;5036558;28;20402;-67
2022/04/23 05:05:44;;;;;;;48.70;23.52;;;;;;;11.79;66.97;99529.16;5018473;28;20481;-67
2022/04/23 05:08:09;;;;;;;38.80;22.55;;;;;;;11.87;66.69;99526.72;5035937;28;20048;-67
2022/04/23 05:10:33;;;;;;;35.35;21.50;;;;;;;11.99;66.28;99517.72;5036235;28;20052;-66
2022/04/23 05:12:58;;;;;;;36.53;23.55;;;;;;;12.15;65.78;99520.06;5034979;28;20048;-66
2022/04/23 05:15:23;;;;;;;40.17;22.92;;;;;;;12.54;65.45;99518.63;5035974;28;20041;-67
2022/04/23 05:17:47;;;;;;;35.58;22.25;;;;;;;13.05;64.29;99510.81;5034339;28;20044;-67
2022/04/23 05:20:12;;;;;;;31.65;22.27;;;;;;;13.45;63.71;99505.63;5017608;28;20052;-67
2022/04/23 05:22:37;;;;;;;33.75;21.98;;;;;;;13.72;61.41;99512.28;5035985;28;20059;-66
2022/04/23 05:25:02;;;;;;;36.90;23.00;;;;;;;13.89;61.09;99510.81;5035827;28;20043;-66
2022/04/23 05:27:27;;;;;;;38.95;22.15;;;;;;;14.04;60.91;99509.47;5035922;28;20040;-67
2022/04/23 05:29:52;;;;;;;31.02;21.38;;;;;;;14.24;59.97;99508.56;5017728;28;20585;-67
2022/04/23 05:32:16;;;;;;;34.35;22.63;;;;;;;14.38;59.18;99513.56;5035700;28;20048;-67
2022/04/23 05:34:43;;;;;;;34.17;20.67;;;;;;;14.34;58.51;99501.41;5035681;28;20040;-66
2022/04/23 05:37:08;;;;;;;34.40;20.67;;;;;;;14.20;58.45;99501.81;5017676;28;20044;-66
2022/04/23 05:39:33;;;;;;;30.65;21.02;;;;;;;14.14;58.54;99507.69;5033795;28;20032;-63
2022/04/23 05:41:57;;;;;;;38.15;22.17;;;;;;;14.16;57.57;99500.38;5035159;28;20045;-63
2022/04/23 05:44:22;;;;;;;30.05;21.85;;;;;;;14.17;57.65;99497.56;5035013;28;20068;-64
2022/04/23 05:46:47;;;;;;;38.83;20.98;;;;;;;14.22;57.56;99494.44;5035476;28;20246;-63
2022/04/23 05:49:11;;;;;;;33.65;22.25;;;;;;;14.37;57.35;99489.56;5017216;28;20048;-64
2022/04/23 05:51:36;;;;;;;32.10;20.52;;;;;;;14.73;56.43;99486.28;5035647;28;20048;-64
2022/04/23 05:54:01;;;;;;;33.33;20.25;;;;;;;15.37;55.31;99474.94;5001139;28;20040;-62
2022/04/23 05:56:25;;;;;;;31.02;21.00;;;;;;;15.98;53.93;99471.81;5036137;28;20075;-63
2022/04/23 05:58:50;;;;;;;31.05;21.92;;;;;;;16.38;52.26;99479.53;5023616;28;20059;-64
2022/04/23 06:01:15;;;;;;;26.27;19.05;;;;;;;16.62;51.18;99487.91;5041616;28;20056;-64
2022/04/23 06:03:41;;;;;;;30.08;20.75;;;;;;;16.95;50.31;99491.78;5024614;28;20040;-65
2022/04/23 06:06:06;;;;;;;28.42;20.95;;;;;;;17.53;48.94;99491.25;5022852;28;20409;-63
2022/04/23 06:08:30;;;;;;;27.15;20.50;;;;;;;18.21;47.97;99493.22;5023616;28;20414;-64
2022/04/23 06:10:55;;;;;;;34.65;20.38;;;;;;;18.83;45.87;99500.03;5042803;28;20512;-64
2022/04/23 06:13:20;;;;;;;29.00;20.73;;;;;;;19.24;44.78;99492.81;5041069;28;20591;-64
2022/04/23 06:15:45;;;;;;;28.10;19.42;;;;;;;19.56;43.56;99494.69;5041263;28;20513;-63
2022/04/23 06:18:09;;;;;;;28.48;20.17;;;;;;;19.97;43.47;99497.34;5041762;28;20552;-63
2022/04/23 06:20:34;;;;;;;28.38;20.33;;;;;;;20.41;42.01;99495.03;5041160;28;20051;-65
2022/04/23 06:22:59;;;;;;;32.10;20.42;;;;;;;20.73;40.84;99496.72;5042917;28;20044;-63
2022/04/23 06:25:23;;;;;;;33.78;19.80;;;;;;;20.60;40.29;99500.84;5044183;28;20043;-65
2022/04/23 06:27:50;;;;;;;28.75;18.73;;;;;;;20.36;40.36;99503.66;5009314;28;20040;-66
2022/04/23 06:30:15;;;;;;;32.15;17.63;;;;;;;20.86;39.51;99502.41;5026426;28;20044;-66
2022/04/23 06:32:40;;;;;;;27.55;19.08;;;;;;;21.71;38.36;99494.97;5044105;28;20040;-66
2022/04/23 06:35:07;;;;;;;25.58;18.67;;;;;;;22.55;36.21;99499.13;5044046;28;20098;-68
2022/04/23 06:37:37;;;;;;;23.70;19.02;;;;;;;22.59;35.57;99505.00;5039615;28;20045;-66
2022/04/23 06:40:03;;;;;;;26.83;17.38;;;;;;;22.61;36.17;99506.50;5039469;28;20131;-66
2022/04/23 06:42:28;;;;;;;24.02;16.70;;;;;;;23.11;35.16;99502.09;5040628;28;20054;-68
2022/04/23 06:44:53;;;;;;;22.98;18.05;;;;;;;23.79;34.08;99497.94;5023024;28;20049;-68
2022/04/23 06:47:17;;;;;;;21.73;15.50;;;;;;;24.52;33.07;99497.34;5028977;28;20064;-65
2022/04/23 06:49:42;;;;;;;19.75;15.93;;;;;;;25.42;32.39;99500.75;5027752;28;20136;-67
2022/04/23 06:52:07;;;;;;;23.00;16.85;;;;;;;26.11;31.00;99495.72;5033460;28;20158;-66
2022/04/23 06:54:31;;;;;;;30.55;16.27;;;;;;;26.66;29.56;99499.78;5005820;28;20041;-66
2022/04/23 06:56:56;;;;;;;23.02;18.23;;;;;;;27.24;29.04;99496.13;5003345;28;20096;-66
2022/04/23 06:59:21;;;;;;;19.38;13.85;;;;;;;27.90;27.53;99499.19;5019859;28;20372;-65
2022/04/23 07:01:46;;;;;;;16.65;10.90;;;;;;;28.27;25.98;99494.66;5018971;28;20187;-64
2022/04/23 07:04:10;;;;;;;13.35;11.38;;;;;;;28.71;25.50;99496.22;5001239;28;20052;-65
2022/04/23 07:06:36;;;;;;;14.52;11.75;;;;;;;28.10;24.15;99504.50;4984135;28;20099;-66
2022/04/23 07:09:00;;;;;;;18.23;12.60;;;;;;;27.41;24.95;99494.56;5017479;28;20048;-66
2022/04/23 07:11:25;;;;;;;13.95;12.15;;;;;;;25.78;26.61;99492.19;5018340;28;20037;-65
2022/04/23 07:13:50;;;;;;;18.40;11.80;;;;;;;24.41;28.64;99499.81;5018163;28;20045;-66
2022/04/23 07:16:16;;;;;;;18.85;12.80;;;;;;;23.17;30.36;99495.88;5018278;28;20519;-65
2022/04/23 07:18:41;;;;;;;18.60;12.95;;;;;;;23.04;30.99;99490.28;4984002;28;20029;-64
2022/04/23 07:21:06;;;;;;;18.67;12.98;;;;;;;23.80;30.34;99488.72;5017617;28;20049;-65
2022/04/23 07:26:14;;;;;;;18.55;13.10;;;;;;;25.63;28.64;99487.78;5001528;28;20049;-67
2022/04/23 07:28:39;;;;;;;19.60;14.20;;;;;;;26.36;27.39;99479.50;5019956;28;20095;-66
2022/04/23 07:31:05;;;;;;;18.48;12.82;;;;;;;26.88;26.63;99486.63;5019667;28;20786;-67
2022/04/23 07:38:57;;;;;;;24.13;15.43;;;;;;;26.93;26.46;99480.53;5019154;28;20037;-66
2022/04/23 07:41:21;;;;;;;19.55;14.98;;;;;;;27.87;25.40;99476.91;4999851;28;20144;-66
2022/04/23 07:43:46;;;;;;;18.50;14.68;;;;;;;28.94;24.39;99484.56;5008845;28;20415;-66
2022/04/23 07:46:11;;;;;;;13.68;11.60;;;;;;;28.80;21.51;99472.91;5037492;28;20075;-66
2022/04/23 07:48:36;;;;;;;12.70;10.18;;;;;;;28.71;21.12;99478.94;5019683;28;20036;-70
2022/04/23 07:51:01;;;;;;;11.90;8.90;;;;;;;28.39;21.37;99473.63;5019134;28;20094;-68
2022/04/23 07:53:26;;;;;;;11.20;9.60;;;;;;;27.38;22.64;99471.19;5002542;28;20068;-66
2022/04/23 07:55:50;;;;;;;10.75;8.45;;;;;;;26.58;23.56;99478.16;5037862;28;20048;-66
2022/04/23 07:58:15;;;;;;;12.52;9.55;;;;;;;26.59;23.76;99473.53;5037072;28;20032;-66
2022/04/23 08:00:42;;;;;;;16.48;11.20;;;;;;;27.05;23.42;99479.63;5036750;28;20479;-66
2022/04/23 08:03:08;;;;;;;13.07;10.07;;;;;;;28.29;21.85;99467.00;5036790;28;20545;-66
2022/04/23 08:05:33;;;;;;;14.60;9.52;;;;;;;28.95;21.34;99452.47;5037030;28;20044;-66
2022/04/23 08:07:59;;;;;;;12.27;10.13;;;;;;;28.86;21.65;99457.44;5034841;28;20041;-67
2022/04/23 08:10:24;;;;;;;13.75;10.27;;;;;;;29.46;21.75;99465.66;5019168;28;20099;-67
2022/04/23 08:12:49;;;;;;;14.60;10.70;;;;;;;30.15;21.11;99469.50;5037700;28;20063;-66
2022/04/23 08:15:14;;;;;;;17.90;12.75;;;;;;;30.49;20.77;99454.84;5036931;28;20125;-66
2022/04/23 08:17:39;;;;;;;13.02;11.63;;;;;;;30.41;20.77;99458.00;5003033;28;20095;-67
2022/04/23 08:20:06;;;;;;;17.20;12.02;;;;;;;30.36;20.85;99454.31;5036538;28;20080;-68
2022/04/23 08:22:30;;;;;;;14.30;12.52;;;;;;;29.51;20.71;99457.53;5036690;28;20135;-68
2022/04/23 08:24:56;;;;;;;16.13;12.50;;;;;;;27.58;21.61;99451.88;5036500;28;20600;-69
2022/04/23 08:27:20;;;;;;;14.07;10.50;;;;;;;27.18;22.78;99456.81;5018938;28;20039;-68
2022/04/23 08:32:28;;;;;;;14.82;10.05;;;;;;;28.03;21.70;99449.75;5036327;28;20040;-66
2022/04/23 08:34:53;;;;;;;13.70;9.57;;;;;;;28.71;21.86;99449.59;5036285;28;20037;-66
2022/04/23 08:37:18;;;;;;;15.95;10.90;;;;;;;29.30;21.10;99452.56;5036332;28;20047;-66
2022/04/23 08:39:45;;;;;;;15.07;12.00;;;;;;;28.77;21.17;99456.06;5036467;28;20040;-66
2022/04/23 08:42:10;;;;;;;16.05;12.02;;;;;;;27.30;22.57;99446.81;5036445;28;20129;-66
2022/04/23 08:44:38;;;;;;;18.38;12.57;;;;;;;26.09;23.83;99448.63;5036313;28;20060;-66
2022/04/23 08:47:04;;;;;;;20.30;12.85;;;;;;;26.20;24.58;99445.25;5036116;28;20044;-67
2022/04/23 08:49:33;;;;;;;18.63;13.25;;;;;;;26.42;24.27;99448.56;5035971;28;20050;-66
2022/04/23 08:52:15;;;;;;;16.67;13.52;;;;;;;26.88;23.91;99448.31;5036238;28;20097;-67
2022/04/23 08:54:40;;;;;;;16.58;11.82;;;;;;;26.54;24.39;99444.09;5017609;28;20044;-66
2022/04/23 08:57:05;;;;;;;15.75;11.32;;;;;;;25.79;25.05;99436.53;5035202;28;20048;-67
2022/04/23 08:59:30;;;;;;;16.20;11.45;;;;;;;26.07;25.03;99436.25;5035419;28;20124;-65
2022/04/23 09:01:55;;;;;;;17.98;12.90;;;;;;;26.07;24.09;99444.47;5035357;28;20495;-68
2022/04/23 09:04:20;;;;;;;16.65;12.45;;;;;;;25.80;24.49;99447.25;5035752;28;20133;-67
2022/04/23 09:06:47;;;;;;;15.73;12.00;;;;;;;25.43;25.22;99443.25;5036121;28;20392;-67
2022/04/23 09:09:16;;;;;;;16.70;12.02;;;;;;;25.80;24.68;99451.84;5018172;28;20115;-67
2022/04/23 09:11:43;;;;;;;15.02;11.75;;;;;;;26.43;23.60;99442.03;5002059;28;20055;-67
2022/04/23 09:14:09;;;;;;;12.18;10.35;;;;;;;26.97;23.12;99433.38;5033262;28;20044;-67
2022/04/23 09:25:10;;;;;;;15.15;12.25;;;;;;;30.87;19.12;99445.19;5044372;28;20286;-66
2022/04/23 09:27:37;;;;;;;18.70;12.30;;;;;;;30.15;19.30;99442.84;5044174;28;20109;-67
2022/04/23 09:30:07;;;;;;;18.08;11.73;;;;;;;30.38;19.50;99430.97;5044068;28;20051;-67
2022/04/23 09:32:32;;;;;;;12.23;10.13;;;;;;;30.28;18.98;99433.50;5036324;28;20045;-67
2022/04/23 09:35:03;;;;;;;12.45;10.32;;;;;;;30.41;18.44;99432.41;5035127;28;20047;-66
2022/04/23 09:38:11;;;;;;;15.13;11.10;;;;;;;30.59;19.01;99440.50;5036932;28;20053;-66
2022/04/23 09:40:21;;;;;;;14.60;10.32;;;;;;;31.10;18.49;99434.09;5036206;28;20056;-66
2022/04/23 09:42:59;;;;;;;12.70;10.15;;;;;;;31.53;18.57;99424.34;5035684;28;20368;-66
2022/04/23 09:45:26;;;;;;;13.25;11.35;;;;;;;31.00;17.87;99420.94;5036869;28;20485;-65
2022/04/23 09:47:51;;;;;;;17.63;11.43;;;;;;;31.10;18.08;99425.84;5018335;28;20048;-66
2022/04/23 09:50:16;;;;;;;13.73;11.52;;;;;;;31.28;17.70;99431.09;5034319;28;20040;-67
2022/04/23 09:52:42;;;;;;;14.13;11.30;;;;;;;31.32;18.27;99424.03;5035383;28;20127;-66
2022/04/23 09:55:08;;;;;;;15.02;11.35;;;;;;;31.29;17.86;99427.25;5000965;28;20418;-66
2022/04/23 09:57:33;;;;;;;14.40;11.38;;;;;;;31.17;18.01;99429.25;5034989;28;20044;-66
2022/04/23 09:59:58;;;;;;;12.95;10.73;;;;;;;30.89;18.08;99421.00;5035075;28;20094;-66
2022/04/23 10:02:24;;;;;;;15.00;11.05;;;;;;;30.59;18.70;99422.06;5034718;28;20067;-66
2022/04/23 10:04:49;;;;;;;11.90;10.35;;;;;;;30.37;18.47;99418.28;5034932;28;20044;-65
2022/04/23 10:07:17;;;;;;;19.60;12.57;;;;;;;30.23;18.90;99422.41;5034933;28;20047;-66
2022/04/23 10:09:46;;;;;;;14.05;10.90;;;;;;;29.96;19.10;99417.44;5016663;28;20044;-65
2022/04/23 10:12:15;;;;;;;13.25;11.15;;;;;;;29.83;18.93;99425.03;5034909;28;20388;-67
2022/04/23 10:14:46;;;;;;;18.05;11.13;;;;;;;28.57;19.78;99409.69;5035267;28;20052;-66
2022/04/23 10:17:14;;;;;;;15.35;12.00;;;;;;;26.81;21.27;99411.97;5034906;28;20036;-66
2022/04/23 10:19:41;;;;;;;15.52;11.68;;;;;;;25.44;22.92;99408.59;5033955;28;20032;-66
2022/04/23 10:22:31;;;;;;;13.57;10.95;;;;;;;24.76;24.29;99408.72;5036329;28;20461;-66
2022/04/23 10:25:10;;;;;;;18.77;12.30;;;;;;;23.81;24.94;99406.03;5035171;28;20048;-66
2022/04/23 10:27:37;;;;;;;20.55;13.02;;;;;;;22.60;26.65;99407.00;5019428;28;20044;-65
2022/04/23 10:30:04;;;;;;;15.15;12.80;;;;;;;22.16;27.57;99400.84;5035501;28;20041;-66
2022/04/23 10:32:40;;;;;;;21.63;13.73;;;;;;;21.73;28.45;99398.78;5036080;28;20119;-65
2022/04/23 10:35:24;;;;;;;17.67;12.27;;;;;;;21.58;28.60;99388.94;5034563;28;20487;-67
2022/04/23 10:37:49;;;;;;;17.20;10.40;;;;;;;21.52;28.56;99384.28;5035282;28;20538;-67
2022/04/23 10:40:19;;;;;;;12.30;9.05;;;;;;;21.27;28.11;99389.94;5033873;28;20424;-67
2022/04/23 10:43:09;;;;;;;14.38;10.18;;;;;;;21.22;28.18;99386.94;5034567;28;20515;-68
2022/04/23 10:45:35;;;;;;;13.32;10.05;;;;;;;20.98;28.93;99389.84;5039126;28;20120;-67
2022/04/23 10:48:43;;;;;;;18.33;11.85;;;;;;;20.93;28.72;99384.13;5038484;28;20067;-66
2022/04/23 10:51:16;;;;;;;14.85;9.52;;;;;;;20.64;29.17;99388.41;4953309;28;20070;-68
2022/04/23 10:53:41;;;;;;;16.23;10.50;;;;;;;19.97;28.97;99391.81;4942687;28;20050;-66
2022/04/23 10:56:20;;;;;;;13.82;9.60;;;;;;;19.61;29.75;99386.88;4956633;28;20049;-66
2022/04/23 10:58:46;;;;;;;17.30;9.85;;;;;;;19.11;30.92;99382.53;4956559;28;20130;-67
2022/04/23 11:01:22;;;;;;;21.95;10.68;;;;;;;19.11;30.97;99373.56;4957010;28;20038;-67
2022/04/23 11:04:10;;;;;;;17.13;10.10;;;;;;;19.00;31.62;99374.78;4955556;28;20065;-67
2022/04/23 11:12:19;;;;;;;10.07;7.15;;;;;;;18.89;31.49;99364.31;4945559;28;20094;-65
2022/04/23 11:14:47;;;;;;;15.85;9.80;;;;;;;18.67;31.94;99364.97;4943828;28;20046;-66
2022/04/23 11:17:13;;;;;;;14.07;9.77;;;;;;;18.48;32.02;99364.25;4937552;28;20053;-66
2022/04/23 11:19:39;;;;;;;19.15;9.60;;;;;;;18.51;31.46;99355.81;4921490;28;20395;-65
2022/04/23 11:22:05;;;;;;;12.40;9.10;;;;;;;18.60;32.39;99361.28;4937162;28;20046;-64
2022/04/23 11:24:29;;;;;;;19.10;11.02;;;;;;;18.58;32.44;99356.03;4960147;28;20111;-65
2022/04/23 11:26:55;;;;;;;20.60;10.43;;;;;;;18.44;32.61;99353.94;5007943;28;20040;-68
2022/04/23 11:29:21;;;;;;;17.48;9.32;;;;;;;18.38;32.00;99363.56;5015702;28;20838;-64
2022/04/23 11:31:59;;;;;;;16.10;10.02;;;;;;;18.20;32.21;99360.16;5016587;28;20051;-64
2022/04/23 11:34:24;;;;;;;13.77;9.18;;;;;;;18.21;32.38;99348.34;5000406;28;20048;-64
2022/04/23 11:36:49;;;;;;;15.32;9.90;;;;;;;18.05;33.14;99351.88;4999281;28;20041;-64
2022/04/23 11:39:15;;;;;;;15.98;10.00;;;;;;;18.02;33.13;99354.03;5026804;28;20040;-62
2022/04/23 11:41:52;;;;;;;17.92;10.15;;;;;;;18.00;32.76;99353.34;5017811;28;20041;-64
2022/04/23 11:47:10;;;;;;;15.25;9.77;;;;;;;17.84;33.17;99345.19;4992276;28;20033;-63